createdAt,value
2019-03-01T00:01:02.912Z,7.87
2019-03-01T00:03:37.676Z,7.97
2019-03-01T00:06:19.947Z,7.43
2019-03-01T00:09:16.997Z,7.47
2019-03-01T00:12:25.000Z,7.40
2019-03-01T00:15:30.290Z,7.47
2019-03-01T00:18:18.225Z,6.90
2019-03-01T00:21:06.384Z,6.83
2019-03-01T00:23:57.913Z,6.70
2019-03-01T00:26:40.036Z,6.20
2019-03-01T00:29:28.509Z,5.83
2019-03-01T00:32:19.893Z,5.90
2019-03-01T00:34:59.325Z,5.70
2019-03-01T00:37:53.897Z,6.20
2019-03-01T00:40:36.106Z,6.20
2019-03-01T00:43:18.760Z,5.67
2019-03-01T00:45:52.196Z,5.93
2019-03-01T00:48:25.641Z,5.53
2019-03-01T00:50:59.091Z,5.30
2019-03-01T00:53:32.529Z,5.27
2019-03-01T00:56:05.976Z,5.43
2019-03-01T00:58:39.399Z,5.37
2019-03-01T01:01:12.836Z,5.10
2019-03-01T01:03:46.264Z,5.07
2019-03-01T01:06:19.771Z,5.23
2019-03-01T01:08:53.198Z,5.20
2019-03-01T01:11:26.638Z,5.03
2019-03-01T01:14:00.052Z,4.37
2019-03-01T01:16:33.492Z,4.93
2019-03-01T01:19:06.912Z,4.60
2019-03-01T01:21:40.344Z,5.07
2019-03-01T01:24:13.772Z,4.60
2019-03-01T01:26:47.204Z,4.87
2019-03-01T01:29:20.625Z,4.70
2019-03-01T01:31:54.057Z,5.30
2019-03-01T01:34:27.485Z,4.70
2019-03-01T01:37:00.921Z,4.80
2019-03-01T01:39:34.348Z,4.60
2019-03-01T01:42:08.213Z,4.77
2019-03-01T01:44:41.640Z,5.53
2019-03-01T01:47:15.343Z,4.50
2019-03-01T01:49:48.766Z,4.97
2019-03-01T01:52:22.235Z,4.80
2019-03-01T01:54:56.536Z,5.20
2019-03-01T01:57:29.975Z,4.90
2019-03-01T02:00:04.664Z,4.80
2019-03-01T02:02:38.188Z,5.30
2019-03-01T02:05:11.684Z,5.47
2019-03-01T02:07:45.143Z,5.23
2019-03-01T02:10:18.569Z,4.90
2019-03-01T02:12:51.991Z,5.73
2019-03-01T02:15:25.417Z,5.10
2019-03-01T02:17:59.035Z,5.47
2019-03-01T02:20:32.456Z,5.80
2019-03-01T02:23:05.891Z,5.43
2019-03-01T02:25:39.309Z,5.20
2019-03-01T02:28:12.743Z,5.60
2019-03-01T02:30:49.246Z,4.90
2019-03-01T02:33:22.677Z,4.70
2019-03-01T02:35:56.096Z,5.30
2019-03-01T02:38:29.533Z,4.97
2019-03-01T02:41:03.013Z,5.47
2019-03-01T02:43:36.469Z,5.53
2019-03-01T02:46:09.910Z,4.77
2019-03-01T02:48:43.352Z,4.97
2019-03-01T02:51:16.769Z,4.40
2019-03-01T02:53:50.200Z,4.67
2019-03-01T02:56:23.637Z,4.30
2019-03-01T02:58:57.142Z,4.90
2019-03-01T03:01:30.561Z,4.87
2019-03-01T03:04:04.073Z,4.50
2019-03-01T03:06:45.017Z,4.30
2019-03-01T03:09:18.937Z,4.37
2019-03-01T03:11:52.381Z,4.37
2019-03-01T03:14:25.817Z,4.27
2019-03-01T03:16:59.240Z,4.07
2019-03-01T03:19:32.674Z,4.60
2019-03-01T03:22:06.142Z,4.37
2019-03-01T03:24:39.612Z,4.40
2019-03-01T03:27:13.029Z,4.27
2019-03-01T03:29:46.464Z,4.40
2019-03-01T03:32:19.886Z,4.80
2019-03-01T03:34:53.318Z,8.90
2019-03-01T03:37:26.742Z,4.37
2019-03-01T03:40:00.405Z,4.20
2019-03-01T03:42:34.045Z,4.17
2019-03-01T03:45:17.977Z,4.27
2019-03-01T03:47:51.401Z,3.70
2019-03-01T03:50:24.837Z,4.17
2019-03-01T03:52:58.250Z,4.20
2019-03-01T03:55:32.206Z,3.67
2019-03-01T03:58:05.686Z,3.80
2019-03-01T04:00:39.120Z,4.10
2019-03-01T04:03:12.542Z,3.57
2019-03-01T04:05:46.249Z,3.80
2019-03-01T04:08:19.756Z,3.97
2019-03-01T04:10:53.197Z,3.90
2019-03-01T04:13:26.620Z,4.17
2019-03-01T04:16:00.053Z,4.13
2019-03-01T04:18:33.474Z,4.63
2019-03-01T04:21:06.929Z,4.50
2019-03-01T04:23:40.429Z,4.43
2019-03-01T04:26:13.937Z,4.50
2019-03-01T04:28:47.360Z,4.50
2019-03-01T04:31:20.840Z,4.70
2019-03-01T04:33:54.315Z,5.33
2019-03-01T04:36:27.757Z,5.13
2019-03-01T04:39:01.186Z,5.10
2019-03-01T04:41:34.617Z,5.17
2019-03-01T04:44:08.065Z,5.60
2019-03-01T04:46:41.569Z,5.20
2019-03-01T04:49:14.996Z,5.80
2019-03-01T04:51:48.433Z,5.80
2019-03-01T04:54:21.866Z,5.60
2019-03-01T04:56:55.300Z,6.13
2019-03-01T04:59:28.725Z,6.43
2019-03-01T05:02:02.160Z,5.87
2019-03-01T05:04:35.581Z,6.50
2019-03-01T05:07:09.012Z,6.30
2019-03-01T05:09:42.441Z,6.07
2019-03-01T05:12:15.952Z,6.27
2019-03-01T05:14:49.385Z,6.30
2019-03-01T05:17:22.848Z,6.20
2019-03-01T05:19:56.260Z,6.10
2019-03-01T05:22:29.718Z,6.63
2019-03-01T05:25:03.400Z,6.20
2019-03-01T05:27:36.910Z,5.83
2019-03-01T05:30:18.000Z,6.07
2019-03-01T05:32:51.474Z,5.90
2019-03-01T05:35:24.973Z,6.07
2019-03-01T05:37:58.414Z,5.77
2019-03-01T05:40:32.012Z,6.10
2019-03-01T05:43:05.464Z,5.73
2019-03-01T05:45:38.881Z,5.77
2019-03-01T05:48:12.320Z,5.63
2019-03-01T05:50:45.732Z,6.40
2019-03-01T05:53:19.183Z,5.80
2019-03-01T05:55:52.614Z,6.20
2019-03-01T05:58:31.017Z,6.20
2019-03-01T06:01:19.401Z,5.90
2019-03-01T06:03:58.429Z,5.90
2019-03-01T06:07:01.617Z,6.37
2019-03-01T06:09:43.792Z,5.87
2019-03-01T06:12:38.064Z,5.33
2019-03-01T06:15:29.210Z,5.10
2019-03-01T06:18:20.009Z,5.53
2019-03-01T06:21:14.464Z,5.17
2019-03-01T06:24:03.048Z,5.27
2019-03-01T06:27:10.697Z,5.53
2019-03-01T06:29:55.500Z,5.10
2019-03-01T06:32:49.768Z,5.33
2019-03-01T06:35:41.177Z,12.30
2019-03-01T06:38:36.940Z,9.87
2019-03-01T06:41:35.776Z,6.23
2019-03-01T06:44:21.049Z,5.07
2019-03-01T06:47:15.764Z,5.23
2019-03-01T06:49:56.901Z,5.10
2019-03-01T06:52:30.321Z,4.90
2019-03-01T06:55:05.307Z,5.20
2019-03-01T06:57:38.725Z,4.70
2019-03-01T07:00:12.670Z,5.33
2019-03-01T07:02:47.972Z,5.17
2019-03-01T07:05:21.425Z,5.00
2019-03-01T07:07:54.840Z,5.10
2019-03-01T07:10:28.280Z,5.83
2019-03-01T07:13:01.690Z,5.57
2019-03-01T07:15:35.130Z,5.27
2019-03-01T07:18:08.552Z,5.37
2019-03-01T07:20:42.008Z,5.50
2019-03-01T07:23:15.424Z,5.50
2019-03-01T07:25:48.868Z,5.20
2019-03-01T07:28:22.281Z,5.00
2019-03-01T07:30:55.712Z,5.10
2019-03-01T07:33:29.140Z,4.90
2019-03-01T07:36:02.577Z,4.70
2019-03-01T07:38:36.017Z,4.50
2019-03-01T07:41:09.541Z,4.40
2019-03-01T07:43:42.952Z,3.83
2019-03-01T07:46:16.393Z,3.90
2019-03-01T07:48:49.814Z,3.33
2019-03-01T07:51:23.556Z,3.37
2019-03-01T07:53:57.060Z,3.43
2019-03-01T07:56:30.533Z,3.20
2019-03-01T07:59:03.969Z,3.50
2019-03-01T08:01:37.417Z,3.47
2019-03-01T08:04:10.832Z,3.33
2019-03-01T08:06:45.596Z,3.07
2019-03-01T08:09:19.421Z,2.13
2019-03-01T08:11:52.868Z,2.40
2019-03-01T08:14:28.008Z,2.43
2019-03-01T08:17:01.682Z,2.33
2019-03-01T08:19:35.165Z,2.33
2019-03-01T08:22:08.605Z,2.40
2019-03-01T08:24:42.787Z,2.60
2019-03-01T08:27:17.229Z,2.37
2019-03-01T08:29:50.654Z,2.57
2019-03-01T08:32:24.192Z,2.20
2019-03-01T08:34:59.250Z,2.50
2019-03-01T08:37:32.680Z,2.70
2019-03-01T08:40:11.516Z,2.30
2019-03-01T08:42:44.344Z,2.80
2019-03-01T08:45:20.901Z,3.20
2019-03-01T08:47:55.452Z,2.63
2019-03-01T08:50:29.476Z,3.20
2019-03-01T08:53:02.915Z,2.70
2019-03-01T08:55:38.890Z,2.77
2019-03-01T08:58:11.543Z,2.50
2019-03-01T09:00:47.396Z,2.60
2019-03-01T09:03:26.708Z,3.20
2019-03-01T09:06:00.194Z,2.97
2019-03-01T09:08:33.635Z,3.17
2019-03-01T09:11:09.357Z,3.30
2019-03-01T09:13:42.312Z,3.33
2019-03-01T09:16:15.728Z,3.10
2019-03-01T09:18:49.901Z,3.40
2019-03-01T09:21:24.314Z,3.90
2019-03-01T09:23:58.422Z,3.77
2019-03-01T09:26:32.054Z,3.93
2019-03-01T09:29:05.639Z,4.07
2019-03-01T09:31:39.127Z,4.23
2019-03-01T09:34:12.586Z,3.93
2019-03-01T09:36:47.386Z,3.73
2019-03-01T09:39:20.889Z,3.53
2019-03-01T09:42:02.914Z,3.57
2019-03-01T09:44:29.469Z,3.70
2019-03-01T09:47:02.889Z,3.83
2019-03-01T09:49:36.316Z,3.73
2019-03-01T09:52:09.740Z,3.90
2019-03-01T09:54:43.180Z,4.10
2019-03-01T09:57:16.607Z,3.30
2019-03-01T09:59:50.062Z,4.03
2019-03-01T10:02:23.535Z,4.03
2019-03-01T10:04:56.978Z,4.00
2019-03-01T10:07:30.396Z,3.77
2019-03-01T10:10:06.046Z,4.77
2019-03-01T10:12:39.474Z,4.40
2019-03-01T10:15:13.718Z,3.80
2019-03-01T10:17:47.131Z,4.03
2019-03-01T10:20:20.563Z,4.73
2019-03-01T10:22:53.980Z,4.20
2019-03-01T10:25:27.685Z,4.80
2019-03-01T10:28:01.109Z,4.27
2019-03-01T10:30:34.550Z,4.60
2019-03-01T10:33:07.975Z,3.90
2019-03-01T10:35:41.443Z,4.33
2019-03-01T10:38:14.857Z,4.73
2019-03-01T10:40:48.289Z,4.53
2019-03-01T10:43:23.436Z,4.10
2019-03-01T10:45:56.885Z,3.97
2019-03-01T10:48:30.322Z,4.00
2019-03-01T10:51:03.771Z,4.30
2019-03-01T10:53:37.185Z,4.17
2019-03-01T10:56:11.119Z,4.03
2019-03-01T10:58:44.532Z,3.80
2019-03-01T11:01:17.970Z,4.10
2019-03-01T11:03:51.396Z,15.17
2019-03-01T11:06:24.849Z,8.77
2019-03-01T11:08:58.344Z,3.70
2019-03-01T11:11:31.778Z,3.70
2019-03-01T11:14:05.276Z,3.17
2019-03-01T11:16:38.780Z,3.60
2019-03-01T11:19:12.230Z,3.70
2019-03-01T11:21:45.664Z,3.40
2019-03-01T11:24:19.085Z,3.10
2019-03-01T11:26:52.586Z,3.60
2019-03-01T11:29:26.025Z,3.33
2019-03-01T11:31:59.522Z,3.67
2019-03-01T11:34:33.021Z,3.30
2019-03-01T11:37:06.638Z,3.70
2019-03-01T11:39:40.049Z,2.93
2019-03-01T11:42:13.485Z,3.10
2019-03-01T11:44:46.910Z,3.13
2019-03-01T11:47:20.359Z,2.83
2019-03-01T11:49:53.802Z,3.00
2019-03-01T11:52:27.239Z,3.00
2019-03-01T11:55:00.661Z,3.00
2019-03-01T11:57:34.197Z,2.63
2019-03-01T12:00:18.878Z,2.70
2019-03-01T12:02:52.991Z,2.70
2019-03-01T12:05:26.476Z,2.70
2019-03-01T12:07:59.912Z,2.40
2019-03-01T12:10:33.493Z,2.37
2019-03-01T12:13:07.094Z,2.70
2019-03-01T12:15:40.529Z,2.87
2019-03-01T12:18:13.961Z,3.20
2019-03-01T12:20:47.380Z,3.20
2019-03-01T12:23:21.064Z,3.03
2019-03-01T12:25:54.559Z,2.87
2019-03-01T12:28:28.009Z,3.00
2019-03-01T12:31:02.106Z,3.40
2019-03-01T12:33:35.648Z,3.10
2019-03-01T12:36:09.076Z,3.23
2019-03-01T12:38:42.516Z,3.20
2019-03-01T12:41:15.937Z,2.90
2019-03-01T12:43:49.372Z,2.80
2019-03-01T12:46:22.788Z,2.90
2019-03-01T12:48:56.230Z,2.37
2019-03-01T12:51:29.653Z,2.50
2019-03-01T12:54:03.096Z,3.20
2019-03-01T12:56:36.519Z,3.30
2019-03-01T12:59:09.954Z,2.63
2019-03-01T13:01:43.369Z,2.87
2019-03-01T13:04:18.577Z,2.67
2019-03-01T13:06:51.983Z,2.90
2019-03-01T13:09:27.329Z,2.77
2019-03-01T13:12:00.959Z,3.47
2019-03-01T13:14:36.743Z,2.70
2019-03-01T13:17:09.540Z,2.60
2019-03-01T13:19:43.008Z,3.10
2019-03-01T13:22:16.423Z,2.93
2019-03-01T13:24:50.399Z,2.90
2019-03-01T13:27:25.014Z,2.97
2019-03-01T13:29:59.601Z,3.40
2019-03-01T13:32:33.463Z,3.70
2019-03-01T13:35:12.371Z,4.37
2019-03-01T13:37:45.454Z,4.67
2019-03-01T13:40:24.384Z,4.40
2019-03-01T13:42:57.417Z,4.73
2019-03-01T13:45:30.861Z,7.77
2019-03-01T13:48:04.288Z,6.83
2019-03-01T13:50:38.244Z,6.30
2019-03-01T13:53:14.341Z,5.00
2019-03-01T13:55:47.863Z,4.60
2019-03-01T13:58:26.798Z,4.57
2019-03-01T14:00:56.835Z,4.60
2019-03-01T14:03:30.253Z,4.40
2019-03-01T14:06:03.762Z,4.53
2019-03-01T14:08:37.546Z,4.17
2019-03-01T14:11:11.607Z,4.30
2019-03-01T14:13:47.751Z,4.90
2019-03-01T14:16:21.807Z,4.50
2019-03-01T14:18:55.468Z,4.57
2019-03-01T14:21:29.746Z,4.37
2019-03-01T14:24:03.591Z,4.60
2019-03-01T14:26:37.039Z,4.60
2019-03-01T14:29:12.823Z,4.10
2019-03-01T14:31:45.620Z,4.20
2019-03-01T14:34:19.054Z,4.13
2019-03-01T14:36:52.487Z,4.13
2019-03-01T14:39:25.918Z,4.43
2019-03-01T14:41:59.344Z,4.53
2019-03-01T14:44:33.941Z,4.47
2019-03-01T14:47:08.108Z,4.50
2019-03-01T14:49:41.567Z,4.07
2019-03-01T14:52:15.000Z,4.20
2019-03-01T14:54:48.541Z,4.07
2019-03-01T14:57:24.429Z,4.10
2019-03-01T15:00:00.936Z,4.23
2019-03-01T15:03:16.510Z,3.67
2019-03-01T15:05:49.809Z,3.73
2019-03-01T15:08:23.232Z,3.57
2019-03-01T15:10:58.686Z,4.00
2019-03-01T15:13:34.924Z,3.70
2019-03-01T15:16:08.317Z,4.23
2019-03-01T15:18:42.903Z,4.47
2019-03-01T15:21:16.341Z,4.60
2019-03-01T15:23:49.785Z,4.43
2019-03-01T15:26:26.415Z,4.40
2019-03-01T15:28:58.939Z,4.40
2019-03-01T15:31:32.584Z,4.30
2019-03-01T15:34:06.034Z,4.17
2019-03-01T15:36:39.452Z,13.83
2019-03-01T15:39:12.895Z,4.40
2019-03-01T15:41:46.311Z,4.07
2019-03-01T15:44:19.745Z,4.07
2019-03-01T15:46:53.176Z,4.23
2019-03-01T15:49:26.618Z,4.63
2019-03-01T15:52:00.032Z,5.20
2019-03-01T15:54:35.752Z,5.30
2019-03-01T15:57:08.611Z,5.60
2019-03-01T15:59:44.416Z,5.90
2019-03-01T16:02:17.197Z,6.30
2019-03-01T16:04:50.624Z,6.33
2019-03-01T16:07:24.044Z,6.57
2019-03-01T16:09:58.258Z,6.10
2019-03-01T16:12:36.003Z,6.80
2019-03-01T16:15:11.104Z,6.97
2019-03-01T16:17:44.525Z,7.47
2019-03-01T16:20:21.232Z,7.53
2019-03-01T16:22:55.071Z,8.07
2019-03-01T16:25:28.870Z,8.50
2019-03-01T16:28:02.295Z,8.80
2019-03-01T16:30:35.747Z,8.77
2019-03-01T16:33:09.171Z,9.07
2019-03-01T16:35:42.616Z,8.70
2019-03-01T16:38:16.032Z,8.37
2019-03-01T16:40:49.476Z,9.17
2019-03-01T16:43:25.448Z,9.10
2019-03-01T16:45:58.076Z,9.37
2019-03-01T16:48:31.497Z,9.43
2019-03-01T16:51:04.997Z,10.53
2019-03-01T16:53:40.556Z,11.03
2019-03-01T16:56:13.612Z,10.90
2019-03-01T16:58:47.041Z,11.87
2019-03-01T17:01:20.489Z,14.63
2019-03-01T17:03:53.912Z,15.07
2019-03-01T17:06:27.348Z,15.93
2019-03-01T17:09:00.768Z,17.37
2019-03-01T17:11:34.213Z,16.73
2019-03-01T17:14:07.640Z,17.23
2019-03-01T17:16:41.096Z,19.33
2019-03-01T17:19:14.596Z,18.10
2019-03-01T17:21:51.105Z,19.10
2019-03-01T17:24:23.212Z,18.40
2019-03-01T17:26:56.661Z,21.53
2019-03-01T17:29:31.605Z,22.30
2019-03-01T17:32:05.303Z,24.30
2019-03-01T17:34:38.724Z,27.27
2019-03-01T17:37:12.164Z,28.70
2019-03-01T17:39:45.585Z,28.93
2019-03-01T17:42:20.742Z,30.63
2019-03-01T17:44:54.203Z,30.87
2019-03-01T17:47:27.665Z,32.20
2019-03-01T17:50:01.169Z,31.80
2019-03-01T17:52:34.677Z,32.90
2019-03-01T17:55:10.645Z,32.83
2019-03-01T17:57:44.088Z,33.17
2019-03-01T18:00:25.471Z,31.57
2019-03-01T18:02:56.960Z,33.60
2019-03-01T18:05:30.385Z,33.00
2019-03-01T18:08:04.940Z,32.87
2019-03-01T18:10:38.741Z,33.13
2019-03-01T18:13:12.172Z,33.10
2019-03-01T18:15:48.532Z,33.47
2019-03-01T18:18:20.764Z,34.20
2019-03-01T18:20:54.192Z,32.57
2019-03-01T18:23:27.624Z,31.30
2019-03-01T18:26:03.328Z,33.13
2019-03-01T18:28:36.280Z,31.73
2019-03-01T18:31:09.700Z,31.80
2019-03-01T18:33:43.149Z,31.27
2019-03-01T18:36:16.580Z,30.80
2019-03-01T18:38:50.014Z,30.33
2019-03-01T18:41:24.147Z,29.83
2019-03-01T18:43:58.605Z,29.40
2019-03-01T18:46:32.042Z,28.37
2019-03-01T18:49:06.228Z,28.70
2019-03-01T18:51:43.379Z,27.37
2019-03-01T18:54:15.253Z,27.83
2019-03-01T18:56:48.672Z,27.57
2019-03-01T18:59:25.006Z,27.47
2019-03-01T19:01:57.411Z,27.47
2019-03-01T19:04:30.854Z,27.97
2019-03-01T19:07:04.281Z,28.90
2019-03-01T19:09:37.723Z,26.47
2019-03-01T19:12:12.569Z,26.33
2019-03-01T19:14:46.317Z,27.53
2019-03-01T19:17:19.731Z,27.90
2019-03-01T19:19:53.181Z,27.10
2019-03-01T19:22:28.370Z,28.57
2019-03-01T19:25:01.809Z,28.20
2019-03-01T19:27:35.232Z,27.40
2019-03-01T19:30:13.553Z,28.47
2019-03-01T19:32:47.224Z,26.90
2019-03-01T19:35:20.668Z,27.80
2019-03-01T19:37:54.113Z,28.83
2019-03-01T19:40:27.542Z,28.30
2019-03-01T19:43:00.965Z,28.93
2019-03-01T19:45:37.551Z,27.80
2019-03-01T19:48:09.572Z,27.63
2019-03-01T19:50:43.628Z,27.93
2019-03-01T19:53:17.221Z,29.70
2019-03-01T19:55:50.657Z,29.23
2019-03-01T19:58:24.157Z,33.07
2019-03-01T20:00:57.609Z,34.23
2019-03-01T20:03:31.033Z,37.40
2019-03-01T20:06:07.772Z,37.63
2019-03-01T20:08:39.700Z,40.30
2019-03-01T20:11:13.140Z,41.67
2019-03-01T20:13:46.568Z,42.97
2019-03-01T20:16:22.650Z,49.05
2019-03-01T20:18:55.164Z,44.93
2019-03-01T20:21:28.608Z,42.03
2019-03-01T20:24:05.240Z,41.47
2019-03-01T20:26:37.200Z,39.53
2019-03-01T20:29:10.620Z,40.23
2019-03-01T20:31:44.072Z,41.60
2019-03-01T20:34:17.500Z,40.70
2019-03-01T20:36:52.897Z,41.70
2019-03-01T20:39:26.092Z,40.17
2019-03-01T20:41:59.537Z,38.00
2019-03-01T20:44:32.965Z,36.57
2019-03-01T20:47:06.400Z,37.90
2019-03-01T20:49:40.455Z,37.13
2019-03-01T20:52:14.058Z,35.53
2019-03-01T20:54:47.484Z,35.83
2019-03-01T20:57:23.881Z,34.33
2019-03-01T20:59:56.069Z,35.13
2019-03-01T21:02:29.508Z,35.03
2019-03-01T21:05:03.002Z,34.50
2019-03-01T21:07:36.445Z,35.93
2019-03-01T21:10:16.988Z,35.37
2019-03-01T21:12:50.895Z,34.60
2019-03-01T21:15:24.384Z,35.63
2019-03-01T21:17:58.731Z,35.50
2019-03-01T21:20:32.642Z,35.73
2019-03-01T21:23:06.084Z,35.53
2019-03-01T21:25:40.620Z,35.87
2019-03-01T21:28:14.320Z,36.10
2019-03-01T21:30:47.754Z,35.00
2019-03-01T21:33:24.046Z,35.87
2019-03-01T21:35:57.884Z,36.40
2019-03-01T21:38:31.362Z,36.57
2019-03-01T21:41:06.315Z,34.17
2019-03-01T21:43:39.953Z,36.57
2019-03-01T21:46:13.372Z,34.77
2019-03-01T21:48:46.827Z,35.37
2019-03-01T21:51:20.258Z,35.20
2019-03-01T21:53:53.692Z,33.97
2019-03-01T21:56:27.124Z,33.77
2019-03-01T21:59:00.616Z,34.43
2019-03-01T22:01:34.037Z,32.70
2019-03-01T22:04:07.544Z,33.10
2019-03-01T22:06:40.967Z,33.60
2019-03-01T22:09:14.546Z,34.30
2019-03-01T22:11:49.213Z,32.30
2019-03-01T22:14:23.188Z,33.77
2019-03-01T22:16:56.616Z,33.77
2019-03-01T22:19:30.563Z,32.60
2019-03-01T22:22:07.277Z,33.13
2019-03-01T22:24:40.427Z,33.53
2019-03-01T22:27:13.852Z,33.27
2019-03-01T22:29:48.448Z,34.03
2019-03-01T22:32:22.007Z,33.80
2019-03-01T22:34:55.444Z,32.77
2019-03-01T22:37:29.567Z,32.83
2019-03-01T22:40:03.951Z,32.77
2019-03-01T22:42:37.388Z,33.53
2019-03-01T22:45:15.736Z,34.00
2019-03-01T22:47:49.185Z,33.37
2019-03-01T22:50:22.687Z,32.60
2019-03-01T22:52:56.127Z,35.30
2019-03-01T22:55:29.557Z,32.23
2019-03-01T22:58:03.010Z,32.47
2019-03-01T23:00:54.499Z,30.90
2019-03-01T23:03:27.856Z,30.50
2019-03-01T23:06:01.364Z,31.23
2019-03-01T23:08:35.524Z,30.10
2019-03-01T23:11:10.005Z,30.70
2019-03-01T23:13:43.444Z,27.90
2019-03-01T23:16:18.793Z,27.17
2019-03-01T23:18:56.666Z,26.10
2019-03-01T23:21:27.160Z,25.60
2019-03-01T23:24:00.888Z,23.40
2019-03-01T23:26:34.692Z,23.37
2019-03-01T23:29:08.603Z,23.67
2019-03-01T23:31:42.028Z,22.20
2019-03-01T23:34:15.484Z,22.97
2019-03-01T23:36:48.909Z,22.53
2019-03-01T23:39:24.596Z,23.97
2019-03-01T23:41:57.505Z,24.07
2019-03-01T23:44:30.943Z,23.27
2019-03-01T23:47:04.377Z,23.67
2019-03-01T23:49:37.872Z,22.03
2019-03-01T23:52:11.293Z,23.37
2019-03-01T23:54:45.483Z,23.77
2019-03-01T23:57:19.888Z,23.63
2019-03-01T23:59:53.329Z,22.60
